Observations for BRISTOL LULSGATE, United Kingdom (EGGD)

EGGD 191950Z AUTO 26005KT 9999 NCD 08/06 Q1004  
EGGD 191920Z AUTO 26006KT 9999 NCD 08/06 Q1004  
EGGD 191850Z AUTO 26008KT 9999 NCD 09/06 Q1003  
EGGD 191820Z AUTO 26007KT 9999 NCD 08/05 Q1003  
EGGD 191750Z AUTO 26007KT 9999 NCD 09/05 Q1003  
EGGD 191720Z AUTO 25006KT 9999 NCD 09/06 Q1003  
EGGD 191650Z AUTO 26005KT 9999 NCD 10/07 Q1002  
EGGD 191620Z AUTO 26007KT 9999 NCD 10/07 Q1002  
EGGD 191550Z AUTO 26007KT 9999 FEW045 11/06 Q1002   
EGGD 191520Z AUTO 28009KT 9999 SCT021 SCT028 11/07 Q1002
EGGD 191450Z AUTO 26011KT 9999 FEW024 12/07 Q1001   
EGGD 191420Z AUTO 27011KT 9999 SCT023 12/07 Q1001   
EGGD 191350Z AUTO 26008KT 9999 FEW025 12/07 Q1001   
EGGD 191320Z AUTO 26009KT 9999 SCT025 13/07 Q1001   
EGGD 191250Z AUTO 27009KT 9999 FEW021 11/07 Q1001   
EGGD 191220Z 26010KT 9999 SCT020 12/08 Q1001
EGGD 191150Z AUTO 27010KT 9999 FEW021 12/07 Q1000   
EGGD 191120Z AUTO 26011KT 9999 NCD 12/07 Q1000  
EGGD 191050Z AUTO 26011KT 9999 FEW012 12/08 Q1000   
EGGD 191020Z 25010KT 9999 FEW008 SCT011 FEW012TCU 12/09 Q1000   
EGGD 191020Z AUTO 25010KT 9999 BKN008 12/09 Q1000
EGGD 190950Z 23008KT 9999 FEW007 FEW039TCU 10/09 Q1000  
EGGD 190920Z 22007KT 9999 FEW015 FEW040TCU 09/08 Q1000  
EGGD 190850Z AUTO 22006KT 9999 BKN010 09/08 Q0999   
EGGD 190820Z AUTO 22006KT 9999 BKN015 BKN020 09/08 Q0999
EGGD 190750Z 22007KT 9999 VCSH FEW010 SCT042 08/08 Q0999
EGGD 190720Z 21006KT 9999 VCSH FEW015 SCT024 08/07 Q0998
EGGD 190650Z 22006KT 9999 FEW004 FEW041TCU 08/07 Q0998  
EGGD 190620Z 23008KT 9999 VCSH FEW003 FEW038TCU 08/08 Q0998 
EGGD 190550Z 23008KT 9999 -SHRA FEW007 FEW020TCU SCT040 08/08 Q0998 
EGGD 190520Z AUTO 22006KT 9999 FEW027/// SCT038/// //////TCU 08/07 Q0998
EGGD 190450Z AUTO 22007KT 9999 -RA BKN034 BKN048 08/08 Q0998
EGGD 190420Z AUTO 22008KT 9999 -RA SCT026/// BKN045/// //////CB 08/07 Q0997 RERA
EGGD 190350Z AUTO 25008KT 2900 +RA FEW006 SCT010 BKN014 09/08 Q0997 REDZ
EGGD 190320Z AUTO 23009KT 9999 SCT024 09/07 Q0997   
EGGD 190250Z AUTO 22010KT 9999 SCT012/// //////CB 09/07 Q0997   
EGGD 190220Z AUTO 21008KT 9999 BKN011/// //////CB 09/07 Q0997   
EGGD 190150Z AUTO 22009KT 9999 BKN013 09/07 Q0997   
EGGD 190120Z AUTO 21007KT 9999 OVC012 09/07 Q0997   
EGGD 190050Z AUTO 22008KT 9999 BKN013 BKN039 09/07 Q0997
EGGD 190020Z AUTO 22009KT 9999 FEW017 SCT043 09/07 Q0997
EGGD 182350Z AUTO 21009KT 9999 BKN029 09/07 Q0997   
EGGD 182320Z AUTO 21009KT 9999 NCD 09/07 Q0997  
EGGD 182250Z AUTO 22008KT 9999 //////TCU 09/07 Q0997
EGGD 182220Z AUTO 22009KT 9999 NCD 09/07 Q0997  
EGGD 182150Z AUTO 22009KT 9999 SCT017 SCT049 10/07 Q0997
EGGD 182120Z AUTO 22011KT 9999 -RA SCT041 SCT049 10/07 Q0998
EGGD 182050Z AUTO 22011KT 9999 //////TCU 10/08 Q0997
EGGD 182020Z AUTO 22011KT 9999 -RA FEW032/// SCT048/// //////TCU 10/08 Q0997
EGGD 181950Z AUTO 22012KT 9999 FEW020 SCT041 10/08 Q0997
EGGD 181920Z AUTO 22011KT 9999 -RA BKN019/// BKN034/// BKN045/// //////TCU 10/08 Q0998